Crash-aerien 17 FEB 2023 d'un Honda HA-420 HondaJet N14QB - Houston-William P. Hobby Airport, TX (HOU)
ASN logo
 

Statuts:Information is only available from news, social media or unofficial sources
Date:vendredi 17 fvrier 2023
Heure:11:16
Type/Sous-type:Silhouette image of generic HDJT model; specific model in this crash may look slightly different
Honda HA-420 HondaJet
Compagnie:Haedo Air LLC
Immatriculation: N14QB
Numéro de série: 42000107
Année de Fabrication: 2018
Moteurs: 2 GE Honda HF120
Equipage:victimes: 0 / à bord:
Passagers:victimes: 0 / à bord:
Total:victimes: 0 / à bord:
Dégats de l'appareil: Substantiels
Lieu de l'accident:Houston-William P. Hobby Airport, TX (HOU) (   Etats-Unis d'Amérique)
Phase de vol: A l'atterrissage (LDG)
Nature:Inconnu
Aéroport de départ:Miami Executive Airport, FL (TMB/KTMB), Etats-Unis d'Amérique
Aéroport de destination:Houston-William P. Hobby Airport, TX (HOU/KHOU), Etats-Unis d'Amérique
Détails:
The HondaJet sustained substantial damage in a landing accident at William P. Hobby Airport (HOU/KHOU), Houston, Texas.
There were no injuries.

The aircraft departed Miami Executive Airport, FL (TMB) at 14:05 UTC (09:05 EST) on a flight to Houston-William P. Hobby Airport, TX (HOU).
At 16:58 UTC (10:58 CST) the flight turned onto final approach for runway 04 at HOU. Four minutes later the flight crew aborted the approach and positioned the aircraft for another approach to runway 04. The aircraft touched down at 17:16 UTC and veered off the runway.
Footage from the accident scene show severe damage to the right-hand wing.

Sources:
» khou.com
» flightaware.com

METAR Weather report:
16:53 UTC / 10:53 local time:
KHOU 171653Z 35017G26KT 10SM BKN250 07/M04 A3047 RMK AO2 PK WND 36026/1652 SLP324 T00671044

17:53 UTC / 11:53 local time:
KHOU 171753Z 34017G25KT 10SM BKN250 09/M04 A3045 RMK AO2 PK WND 31026/1737 SLP315 T00891044 10089 20033 58003


Photos

Add your photo of this accident or aircraft

Video, social media

Plan
Ce plan montre l'aéroport de départ ainsi que la supposée destination du vol. La ligne fixe reliant les deux aéroports n'est pas le plan de vol exact.
La distance entre Miami Executive Airport, FL et Houston-William P. Hobby Airport, TX est de 1518 km (949 miles).
Accident location: Approximate; accuracy within a few kilometers.

Les informations ci-dessus ne représentent pas l'opinion de la 'Flight Safety Foundation' ou de 'Aviation Safety Network' sur les causes de l'accident. Ces informations prélimimaires sont basées sur les faits tel qu'ils sont connus à ce jour.
languages: languages

Share

The Aviation Safety Network is an exclusive service provided by:
Quick Links:

CONNECT WITH US: FSF Facebook FSF Twitter FSF Youtube FSF LinkedIn FSF Instagram

©2023 Flight Safety Foundation

1920 Ballenger Av., 4th Fl.
Alexandria, Virginia 22314
www.FlightSafety.org